Hlavní strana
METAR-TAF:

METAR-TAF

Letiště :

Muscle Shoals, Alabama, Spojené státy americké

zeměpisná šířka: 34-44-38N, zeměpisná délka: 087-35-58W, výška: 167 m

Aktuální stav počasí

Zpráva byla vytvořena před 29 minutami, v 02:53 UTC
Severoseverozápadní vítr 5 kt
Teplota -1°C
Vlhkost vzduchu 64%
Tlak 1027 hPa
Viditelnost: 16.1 km
Jasno

METAR: KMSL 210253Z AUTO 34005KT 10SM CLR M01/M07 A3032 RMK AO2 SLP272 T10111072 50006

Čas: 21:22 (03:22 UTC)

Předpověď počasí

Zpráva byla vytvořena před 3 hodinami a 55 minutami, v 23:27 UTC
Předpověď platná od 21 v 00 UTC do 21 v 24 UTC
Severovýchodní vítr 6 kt
Viditelnost: 10 km
Skoro jasno ve výšce 4000 ft
Polojasno ve výšce 25000 ft
Od 21 v 0800 UTC
Severoseverovýchodní vítr 8 kt
Viditelnost: 10 km
Skoro jasno ve výšce 25000 ft

TAF: KMSL 202327Z 2100/2124 04006KT P6SM FEW040 SCT250 FM210800 03008KT P6SM FEW250

Stav a předpovědi počasí z více než 4 000 letišť (zprávy METAR a TAF).

Červené a žluté tečky na mapě představují dostupné meteorologické stanice.

Když kurzor umístíte na tečku, zobrazí se název stanice.

Pak kliknutím zobrazíte stav a předpověď počasí.

Chcete-li změnit mapu, kliknutím na zelené tlačítko se znaménkem +mapu přiblížíte, kliknutím na zelené tlačítko se znaménkem – mapu oddálíte a kliknutím na zelené šipky přejdete na sousední mapy.


METAR-TAF: